createdAt,value
2022-12-27T00:01:54.496Z,49.57
2022-12-27T00:04:21.160Z,49.77
2022-12-27T00:06:47.753Z,49.88
2022-12-27T00:09:14.316Z,50.15
2022-12-27T00:11:40.909Z,50.12
2022-12-27T00:14:07.920Z,49.53
2022-12-27T00:16:35.010Z,49.73
2022-12-27T00:19:01.998Z,50.12
2022-12-27T00:21:28.767Z,49.57
2022-12-27T00:23:57.593Z,50.00
2022-12-27T00:26:29.701Z,49.73
2022-12-27T00:28:56.790Z,49.74
2022-12-27T00:31:24.133Z,50.26
2022-12-27T00:33:52.747Z,49.33
2022-12-27T00:36:21.542Z,49.64
2022-12-27T00:38:48.786Z,50.19
2022-12-27T00:41:15.909Z,49.57
2022-12-27T00:43:42.466Z,49.27
2022-12-27T00:46:09.733Z,49.24
2022-12-27T00:48:36.297Z,49.77
2022-12-27T00:51:09.121Z,50.13
2022-12-27T00:53:35.958Z,50.05
2022-12-27T00:56:09.917Z,49.90
2022-12-27T00:58:40.687Z,49.45
2022-12-27T01:01:09.739Z,49.87
2022-12-27T01:03:37.085Z,49.98
2022-12-27T01:06:08.347Z,49.70
2022-12-27T01:08:34.942Z,49.88
2022-12-27T01:11:01.751Z,49.75
2022-12-27T01:13:28.454Z,50.08
2022-12-27T01:15:55.038Z,50.13
2022-12-27T01:18:21.927Z,50.01
2022-12-27T01:20:48.618Z,49.99
2022-12-27T01:23:15.298Z,49.37
2022-12-27T01:25:41.849Z,50.04
2022-12-27T01:28:08.664Z,49.70
2022-12-27T01:30:35.353Z,49.33
2022-12-27T01:33:01.929Z,49.51
2022-12-27T01:35:28.492Z,49.55
2022-12-27T01:37:55.090Z,49.99
2022-12-27T01:40:21.743Z,50.05
2022-12-27T01:42:54.839Z,50.05
2022-12-27T01:45:26.851Z,49.40
2022-12-27T01:48:21.659Z,49.40
2022-12-27T01:50:52.729Z,49.74
2022-12-27T01:53:21.908Z,50.03
2022-12-27T01:56:01.408Z,49.39
2022-12-27T01:58:35.470Z,50.19
2022-12-27T02:01:04.451Z,49.36
2022-12-27T02:03:35.167Z,49.52
2022-12-27T02:06:03.458Z,49.97
2022-12-27T02:08:41.535Z,49.44
2022-12-27T02:11:09.249Z,49.52
2022-12-27T02:13:41.347Z,49.07
2022-12-27T02:16:16.540Z,49.82
2022-12-27T02:18:43.983Z,49.43
2022-12-27T02:21:26.003Z,49.13
2022-12-27T02:24:11.219Z,49.94
2022-12-27T02:26:50.690Z,49.17
2022-12-27T02:29:41.062Z,49.23
2022-12-27T02:32:16.661Z,50.02
2022-12-27T02:34:56.401Z,49.93
2022-12-27T02:37:25.574Z,50.16
2022-12-27T02:39:53.388Z,49.75
2022-12-27T02:42:39.004Z,49.83
2022-12-27T02:45:35.578Z,49.61
2022-12-27T02:48:21.161Z,49.21
2022-12-27T02:51:20.999Z,49.37
2022-12-27T02:54:10.372Z,49.83
2022-12-27T02:57:03.630Z,49.99
2022-12-27T02:59:58.826Z,50.18
2022-12-27T03:02:57.917Z,50.23
2022-12-27T03:05:31.475Z,50.02
2022-12-27T03:08:22.377Z,49.54
2022-12-27T03:11:14.376Z,49.35
2022-12-27T03:14:12.945Z,49.51
2022-12-27T03:16:55.993Z,49.27
2022-12-27T03:19:51.487Z,49.12
2022-12-27T03:22:37.664Z,50.00
2022-12-27T03:25:23.793Z,49.79
2022-12-27T03:28:11.845Z,49.98
2022-12-27T03:30:58.005Z,49.65
2022-12-27T03:33:26.517Z,49.29
2022-12-27T03:36:18.315Z,48.95
2022-12-27T03:39:08.684Z,50.03
2022-12-27T03:42:04.830Z,49.17
2022-12-27T03:44:31.429Z,49.90
2022-12-27T03:47:00.014Z,49.81
2022-12-27T03:49:40.652Z,49.23
2022-12-27T03:52:16.428Z,49.34
2022-12-27T03:54:44.303Z,49.60
2022-12-27T03:57:22.351Z,49.45
2022-12-27T03:59:48.903Z,49.91
2022-12-27T04:02:15.730Z,49.90
2022-12-27T04:04:42.345Z,49.47
2022-12-27T04:07:08.981Z,49.40
2022-12-27T04:09:54.318Z,49.59
2022-12-27T04:12:39.589Z,50.14
2022-12-27T04:15:24.751Z,49.74
2022-12-27T04:18:10.056Z,49.59
2022-12-27T04:20:55.350Z,49.85
2022-12-27T04:23:40.777Z,49.70
2022-12-27T04:26:26.056Z,49.50
2022-12-27T04:29:11.336Z,50.04
2022-12-27T04:31:56.630Z,49.93
2022-12-27T04:34:41.867Z,49.22
2022-12-27T04:37:19.271Z,49.80
2022-12-27T04:40:06.747Z,49.87
2022-12-27T04:42:52.023Z,49.35
2022-12-27T04:45:37.332Z,49.79
2022-12-27T04:48:23.214Z,49.34
2022-12-27T04:51:08.586Z,48.98
2022-12-27T04:53:53.945Z,49.54
2022-12-27T04:56:20.503Z,49.27
2022-12-27T04:59:05.581Z,48.96
2022-12-27T05:01:51.197Z,49.33
2022-12-27T05:04:17.883Z,49.58
2022-12-27T05:06:44.519Z,49.64
2022-12-27T05:09:29.641Z,49.29
2022-12-27T05:12:14.942Z,49.07
2022-12-27T05:14:41.551Z,49.51
2022-12-27T05:17:08.225Z,48.85
2022-12-27T05:19:34.777Z,49.86
2022-12-27T05:22:19.723Z,49.49
2022-12-27T05:25:04.590Z,49.73
2022-12-27T05:27:31.138Z,49.14
2022-12-27T05:29:57.658Z,49.77
2022-12-27T05:32:24.199Z,49.09
2022-12-27T05:34:50.771Z,49.79
2022-12-27T05:37:17.317Z,49.19
2022-12-27T05:39:43.840Z,49.03
2022-12-27T05:42:10.386Z,49.76
2022-12-27T05:44:36.936Z,49.69
2022-12-27T05:47:03.531Z,49.32
2022-12-27T05:49:30.093Z,49.72
2022-12-27T05:51:56.648Z,49.81
2022-12-27T05:54:23.195Z,49.73
2022-12-27T05:56:49.732Z,49.85
2022-12-27T05:59:16.348Z,49.44
2022-12-27T06:01:42.972Z,49.86
2022-12-27T06:04:10.505Z,49.41
2022-12-27T06:06:37.071Z,49.00
2022-12-27T06:09:03.707Z,49.82
2022-12-27T06:11:30.246Z,48.94
2022-12-27T06:13:56.846Z,49.74
2022-12-27T06:16:23.470Z,48.97
2022-12-27T06:18:50.103Z,49.26
2022-12-27T06:21:19.798Z,49.07
2022-12-27T06:23:46.983Z,49.50
2022-12-27T06:26:16.352Z,49.11
2022-12-27T06:28:43.345Z,48.82
2022-12-27T06:31:10.030Z,49.52
2022-12-27T06:33:36.720Z,49.16
2022-12-27T06:36:07.784Z,49.46
2022-12-27T06:38:34.332Z,49.21
2022-12-27T06:41:05.769Z,49.33
2022-12-27T06:43:33.165Z,49.08
2022-12-27T06:46:02.812Z,49.55
2022-12-27T06:48:30.018Z,49.27
2022-12-27T06:50:56.589Z,49.71
2022-12-27T06:53:23.639Z,49.34
2022-12-27T06:55:50.208Z,49.52
2022-12-27T06:58:16.934Z,49.61
2022-12-27T07:00:43.541Z,49.18
2022-12-27T07:03:10.201Z,49.78
2022-12-27T07:05:37.359Z,49.48
2022-12-27T07:08:04.073Z,48.93
2022-12-27T07:10:31.037Z,49.34
2022-12-27T07:12:57.998Z,49.81
2022-12-27T07:15:24.835Z,49.71
2022-12-27T07:17:51.464Z,49.36
2022-12-27T07:20:18.110Z,49.51
2022-12-27T07:22:44.680Z,49.00
2022-12-27T07:25:11.316Z,49.28
2022-12-27T07:27:38.139Z,49.17
2022-12-27T07:30:05.538Z,48.85
2022-12-27T07:32:32.235Z,49.44
2022-12-27T07:34:58.882Z,48.88
2022-12-27T07:37:25.441Z,49.07
2022-12-27T07:39:52.049Z,49.05
2022-12-27T07:42:18.663Z,49.43
2022-12-27T07:44:45.212Z,48.91
2022-12-27T07:47:11.809Z,49.41
2022-12-27T07:49:38.342Z,49.20
2022-12-27T07:52:05.010Z,49.13
2022-12-27T07:54:31.713Z,49.37
2022-12-27T07:56:58.343Z,48.79
2022-12-27T07:59:24.892Z,49.02
2022-12-27T08:02:06.474Z,49.00
2022-12-27T08:04:35.829Z,49.23
2022-12-27T08:07:05.970Z,48.77
2022-12-27T08:09:34.475Z,49.31
2022-12-27T08:12:01.122Z,49.55
2022-12-27T08:14:27.769Z,49.08
2022-12-27T08:16:57.024Z,48.87
2022-12-27T08:19:23.561Z,48.75
2022-12-27T08:21:50.101Z,49.02
2022-12-27T08:24:16.672Z,49.24
2022-12-27T08:26:43.269Z,49.39
2022-12-27T08:29:09.836Z,49.37
2022-12-27T08:31:36.379Z,49.37
2022-12-27T08:34:03.356Z,48.70
2022-12-27T08:36:54.833Z,49.44
2022-12-27T08:39:16.478Z,48.82
2022-12-27T08:41:43.150Z,48.81
2022-12-27T08:44:10.574Z,48.92
2022-12-27T08:46:37.350Z,48.85
2022-12-27T08:49:04.676Z,48.66
2022-12-27T08:51:40.139Z,48.96
2022-12-27T08:54:07.606Z,48.88
2022-12-27T08:56:34.240Z,49.24
2022-12-27T08:59:00.846Z,48.89
2022-12-27T09:01:27.647Z,49.11
2022-12-27T09:03:54.369Z,49.23
2022-12-27T09:06:22.844Z,48.58
2022-12-27T09:08:50.659Z,48.74
2022-12-27T09:11:25.978Z,48.97
2022-12-27T09:13:52.683Z,48.89
2022-12-27T09:16:21.834Z,49.33
2022-12-27T09:18:52.949Z,48.47
2022-12-27T09:21:21.212Z,49.14
2022-12-27T09:23:48.239Z,49.11
2022-12-27T09:26:17.595Z,49.23
2022-12-27T09:28:44.635Z,48.70
2022-12-27T09:31:13.089Z,48.65
2022-12-27T09:33:40.593Z,48.94
2022-12-27T09:36:09.915Z,44.60
2022-12-27T09:38:36.833Z,45.64
2022-12-27T09:41:06.480Z,46.95
2022-12-27T09:43:43.079Z,48.04
2022-12-27T09:46:24.104Z,48.16
2022-12-27T09:48:51.304Z,48.27
2022-12-27T09:51:18.607Z,47.53
2022-12-27T09:54:14.488Z,48.54
2022-12-27T09:57:17.690Z,48.16
2022-12-27T09:59:32.398Z,48.29
2022-12-27T10:01:59.527Z,47.88
2022-12-27T10:04:45.176Z,48.12
2022-12-27T10:07:32.887Z,48.28
2022-12-27T10:10:26.219Z,47.93
2022-12-27T10:13:07.891Z,47.84
2022-12-27T10:15:49.947Z,48.30
2022-12-27T10:18:44.864Z,48.35
2022-12-27T10:21:20.194Z,47.90
2022-12-27T10:23:52.814Z,48.51
2022-12-27T10:26:20.236Z,47.94
2022-12-27T10:29:16.129Z,48.38
2022-12-27T10:31:43.167Z,45.67
2022-12-27T10:34:14.915Z,47.80
2022-12-27T10:36:42.319Z,47.49
2022-12-27T10:39:29.988Z,47.55
2022-12-27T10:42:05.541Z,48.05
2022-12-27T10:44:32.102Z,47.97
2022-12-27T10:46:59.537Z,47.82
2022-12-27T10:49:27.187Z,47.69
2022-12-27T10:51:57.259Z,47.81
2022-12-27T10:54:27.047Z,48.31
2022-12-27T10:56:54.835Z,48.38
2022-12-27T10:59:26.869Z,47.65
2022-12-27T11:02:02.903Z,48.03
2022-12-27T11:04:30.738Z,48.27
2022-12-27T11:07:01.790Z,47.65
2022-12-27T11:09:50.717Z,48.43
2022-12-27T11:12:25.814Z,47.56
2022-12-27T11:14:58.490Z,48.28
2022-12-27T11:17:39.600Z,47.91
2022-12-27T11:20:32.683Z,48.08
2022-12-27T11:23:08.462Z,48.28
2022-12-27T11:25:35.842Z,47.82
2022-12-27T11:28:14.273Z,47.50
2022-12-27T11:30:41.670Z,48.23
2022-12-27T11:33:25.374Z,47.51
2022-12-27T11:35:54.529Z,47.95
2022-12-27T11:38:29.078Z,47.94
2022-12-27T11:41:20.828Z,47.60
2022-12-27T11:44:15.709Z,47.58
2022-12-27T11:46:57.070Z,48.11
2022-12-27T11:49:34.424Z,47.79
2022-12-27T11:52:22.780Z,48.42
2022-12-27T11:55:04.297Z,47.96
2022-12-27T11:57:46.093Z,48.56
2022-12-27T12:00:27.164Z,47.76
2022-12-27T12:03:19.903Z,48.53
2022-12-27T12:06:10.840Z,48.40
2022-12-27T12:09:09.989Z,48.24
2022-12-27T12:11:54.842Z,48.40
2022-12-27T12:14:46.299Z,48.33
2022-12-27T12:17:40.479Z,47.78
2022-12-27T12:20:39.237Z,48.14
2022-12-27T12:23:20.025Z,48.08
2022-12-27T12:26:04.376Z,47.94
2022-12-27T12:28:59.824Z,48.43
2022-12-27T12:31:39.096Z,48.04
2022-12-27T12:34:18.200Z,48.43
2022-12-27T12:37:02.298Z,48.33
2022-12-27T12:39:43.754Z,48.32
2022-12-27T12:42:34.269Z,47.72
2022-12-27T12:45:25.456Z,47.74
2022-12-27T12:48:07.106Z,47.72
2022-12-27T12:51:01.499Z,47.51
2022-12-27T12:53:44.446Z,48.43
2022-12-27T12:56:29.153Z,48.16
2022-12-27T12:59:09.143Z,47.56
2022-12-27T13:01:54.707Z,47.69
2022-12-27T13:05:21.690Z,48.31
2022-12-27T13:08:15.793Z,47.63
2022-12-27T13:11:01.854Z,47.60
2022-12-27T13:13:39.965Z,47.86
2022-12-27T13:16:12.565Z,47.75
2022-12-27T13:19:17.207Z,47.89
2022-12-27T13:22:02.507Z,48.45
2022-12-27T13:25:06.139Z,47.91
2022-12-27T13:27:59.399Z,47.98
2022-12-27T13:31:13.781Z,48.59
2022-12-27T13:34:17.319Z,48.39
2022-12-27T13:37:06.347Z,48.50
2022-12-27T13:40:05.563Z,48.21
2022-12-27T13:43:09.152Z,48.18
2022-12-27T13:46:01.365Z,48.02
2022-12-27T13:48:53.034Z,48.19
2022-12-27T13:51:35.361Z,48.03
2022-12-27T13:54:35.639Z,47.94
2022-12-27T13:57:47.601Z,48.14
2022-12-27T14:00:21.422Z,47.75
2022-12-27T14:02:57.161Z,47.86
2022-12-27T14:05:42.096Z,47.89
2022-12-27T14:08:30.307Z,48.26
2022-12-27T14:11:01.176Z,48.16
2022-12-27T14:13:35.067Z,48.44
2022-12-27T14:16:31.813Z,47.51
2022-12-27T14:19:33.908Z,47.89
2022-12-27T14:22:18.618Z,48.25
2022-12-27T14:25:08.471Z,48.56
2022-12-27T14:28:12.406Z,47.86
2022-12-27T14:31:00.556Z,48.55
2022-12-27T14:33:38.552Z,47.85
2022-12-27T14:36:07.953Z,48.60
2022-12-27T14:38:34.449Z,48.41
2022-12-27T14:41:40.549Z,48.46
2022-12-27T14:44:52.298Z,48.14
2022-12-27T14:47:52.967Z,48.17
2022-12-27T14:50:34.777Z,48.41
2022-12-27T14:53:29.257Z,47.83
2022-12-27T14:56:25.040Z,47.75
2022-12-27T14:59:22.826Z,47.97
2022-12-27T15:01:59.208Z,48.72
2022-12-27T15:04:34.578Z,48.29
2022-12-27T15:07:09.317Z,48.46
2022-12-27T15:09:45.210Z,48.03
2022-12-27T15:12:30.683Z,48.06
2022-12-27T15:15:06.234Z,48.61
2022-12-27T15:17:51.480Z,48.08
2022-12-27T15:21:02.997Z,48.24
2022-12-27T15:23:36.620Z,47.76
2022-12-27T15:26:26.446Z,47.45
2022-12-27T15:29:15.709Z,47.76
2022-12-27T15:32:23.845Z,47.59
2022-12-27T15:35:16.875Z,47.74
2022-12-27T15:38:04.604Z,47.74
2022-12-27T15:40:34.195Z,47.54
2022-12-27T15:43:34.805Z,48.35
2022-12-27T15:46:20.099Z,47.85
2022-12-27T15:49:01.693Z,48.15
2022-12-27T15:51:49.585Z,47.80
2022-12-27T15:54:39.164Z,47.95
2022-12-27T15:57:24.623Z,48.67
2022-12-27T16:00:25.332Z,47.89
2022-12-27T16:02:54.385Z,48.59
2022-12-27T16:05:21.930Z,48.55
2022-12-27T16:07:53.283Z,47.88
2022-12-27T16:10:35.782Z,48.53
2022-12-27T16:13:11.279Z,48.09
2022-12-27T16:15:44.894Z,48.28
2022-12-27T16:18:23.786Z,48.34
2022-12-27T16:21:02.796Z,47.90
2022-12-27T16:23:48.067Z,47.91
2022-12-27T16:26:32.495Z,47.84
2022-12-27T16:29:12.886Z,47.69
2022-12-27T16:31:45.970Z,47.94
2022-12-27T16:34:24.567Z,48.12
2022-12-27T16:36:53.104Z,48.16
2022-12-27T16:39:40.925Z,47.83
2022-12-27T16:42:08.662Z,48.13
2022-12-27T16:44:53.889Z,48.31
2022-12-27T16:47:55.468Z,47.93
2022-12-27T16:50:40.483Z,47.78
2022-12-27T16:53:17.702Z,48.42
2022-12-27T16:55:47.656Z,48.53
2022-12-27T16:58:29.175Z,47.95
2022-12-27T17:00:57.781Z,48.41
2022-12-27T17:03:30.197Z,48.51
2022-12-27T17:08:44.873Z,48.79
2022-12-27T17:11:28.275Z,48.01
2022-12-27T17:13:58.499Z,48.71
2022-12-27T17:16:28.480Z,48.03
2022-12-27T17:19:16.072Z,48.06
2022-12-27T17:21:44.743Z,48.72
2022-12-27T17:24:17.631Z,48.20
2022-12-27T17:27:11.689Z,48.63
2022-12-27T17:30:15.329Z,48.81
2022-12-27T17:33:13.866Z,48.73
2022-12-27T17:35:56.820Z,48.36
2022-12-27T17:38:35.414Z,48.66
2022-12-27T17:41:15.504Z,48.35
2022-12-27T17:44:12.789Z,47.86
2022-12-27T17:46:57.677Z,48.48
2022-12-27T17:49:29.463Z,48.46
2022-12-27T17:52:15.395Z,48.04
2022-12-27T17:55:00.460Z,48.23
2022-12-27T17:57:46.262Z,47.66
2022-12-27T18:00:33.838Z,48.41
2022-12-27T18:03:06.451Z,47.77
2022-12-27T18:05:34.106Z,48.23
2022-12-27T18:08:06.333Z,48.27
2022-12-27T18:10:34.486Z,48.40
2022-12-27T18:13:04.273Z,48.11
2022-12-27T18:15:34.651Z,48.46
2022-12-27T18:18:07.590Z,47.74
2022-12-27T18:20:38.843Z,48.37
2022-12-27T18:23:15.544Z,47.83
2022-12-27T18:25:45.067Z,48.57
2022-12-27T18:28:32.150Z,47.99
2022-12-27T18:31:17.629Z,48.60
2022-12-27T18:33:51.007Z,48.06
2022-12-27T18:36:39.701Z,48.42
2022-12-27T18:39:26.457Z,48.30
2022-12-27T18:41:54.384Z,48.37
2022-12-27T18:44:27.396Z,48.91
2022-12-27T18:46:57.321Z,48.18
2022-12-27T18:49:29.778Z,48.87
2022-12-27T18:51:56.643Z,48.66
2022-12-27T18:54:34.821Z,48.66
2022-12-27T18:57:03.683Z,48.16
2022-12-27T18:59:36.008Z,47.89
2022-12-27T19:02:24.677Z,48.26
2022-12-27T19:05:18.855Z,48.04
2022-12-27T19:07:55.711Z,47.94
2022-12-27T19:10:25.180Z,47.91
2022-12-27T19:12:52.662Z,48.27
2022-12-27T19:15:48.572Z,48.39
2022-12-27T19:18:37.032Z,48.13
2022-12-27T19:21:05.483Z,47.93
2022-12-27T19:23:37.430Z,48.30
2022-12-27T19:26:15.920Z,47.86
2022-12-27T19:28:46.293Z,48.02
2022-12-27T19:31:17.973Z,48.03
2022-12-27T19:33:50.498Z,48.45
2022-12-27T19:36:18.011Z,48.24
2022-12-27T19:38:47.967Z,48.75
2022-12-27T19:41:14.966Z,48.68
2022-12-27T19:43:46.199Z,48.52
2022-12-27T19:46:14.113Z,48.08
2022-12-27T19:48:41.119Z,48.62
2022-12-27T19:51:08.031Z,48.19
2022-12-27T19:53:38.915Z,47.92
2022-12-27T19:56:07.725Z,48.49
2022-12-27T19:58:34.972Z,48.07
2022-12-27T20:01:01.636Z,48.22
2022-12-27T20:03:28.577Z,48.60
2022-12-27T20:06:13.794Z,48.35
2022-12-27T20:08:44.973Z,48.80
2022-12-27T20:11:19.912Z,48.35
2022-12-27T20:13:46.822Z,48.61
2022-12-27T20:16:17.248Z,48.50
2022-12-27T20:18:44.634Z,48.32
2022-12-27T20:21:16.539Z,48.31
2022-12-27T20:23:43.564Z,48.35
2022-12-27T20:26:11.094Z,47.78
2022-12-27T20:28:37.729Z,47.96
2022-12-27T20:31:13.842Z,48.33
2022-12-27T20:33:41.908Z,48.09
2022-12-27T20:36:09.227Z,48.29
2022-12-27T20:38:38.370Z,48.29
2022-12-27T20:41:09.778Z,47.74
2022-12-27T20:43:36.729Z,48.53
2022-12-27T20:46:08.208Z,48.07
2022-12-27T20:48:38.906Z,48.09
2022-12-27T20:51:09.891Z,48.59
2022-12-27T20:53:36.863Z,48.32
2022-12-27T20:56:04.983Z,48.02
2022-12-27T20:58:32.915Z,48.15
2022-12-27T21:01:09.284Z,48.49
2022-12-27T21:03:36.790Z,48.28
2022-12-27T21:06:11.477Z,48.06
2022-12-27T21:08:45.594Z,48.22
2022-12-27T21:11:20.561Z,48.82
2022-12-27T21:13:48.829Z,48.51
2022-12-27T21:16:27.534Z,48.23
2022-12-27T21:18:54.723Z,48.76
2022-12-27T21:21:27.380Z,48.21
2022-12-27T21:23:56.064Z,48.60
2022-12-27T21:26:25.294Z,48.01
2022-12-27T21:28:52.146Z,48.22
2022-12-27T21:31:18.966Z,48.36
2022-12-27T21:33:46.313Z,48.17
2022-12-27T21:36:18.586Z,48.09
2022-12-27T21:38:45.391Z,48.31
2022-12-27T21:41:20.955Z,47.88
2022-12-27T21:43:48.870Z,48.36
2022-12-27T21:46:23.854Z,48.17
2022-12-27T21:48:55.406Z,48.28
2022-12-27T21:51:22.228Z,48.41
2022-12-27T21:53:49.122Z,48.28
2022-12-27T21:56:17.048Z,47.75
2022-12-27T21:58:44.719Z,48.31
2022-12-27T22:01:13.812Z,48.50
2022-12-27T22:03:42.959Z,47.88
2022-12-27T22:06:11.884Z,47.97
2022-12-27T22:08:39.127Z,48.57
2022-12-27T22:11:05.781Z,48.50
2022-12-27T22:13:33.274Z,48.07
2022-12-27T22:16:02.194Z,48.07
2022-12-27T22:18:36.369Z,48.54
2022-12-27T22:21:05.573Z,48.59
2022-12-27T22:23:37.373Z,48.67
2022-12-27T22:26:05.263Z,48.24
2022-12-27T22:28:31.993Z,48.03
2022-12-27T22:30:58.572Z,48.36
2022-12-27T22:33:25.172Z,48.31
2022-12-27T22:35:51.687Z,48.59
2022-12-27T22:38:18.255Z,48.26
2022-12-27T22:40:46.702Z,48.26
2022-12-27T22:43:13.479Z,48.73
2022-12-27T22:45:43.422Z,48.55
2022-12-27T22:48:11.198Z,48.44
2022-12-27T22:50:38.328Z,48.54
2022-12-27T22:53:06.615Z,48.03
2022-12-27T22:55:33.178Z,48.32
2022-12-27T22:57:59.742Z,47.83
2022-12-27T23:00:26.310Z,48.29
2022-12-27T23:02:52.969Z,48.14
2022-12-27T23:05:19.541Z,47.79
2022-12-27T23:08:05.461Z,47.74
2022-12-27T23:10:32.653Z,48.42
2022-12-27T23:12:59.196Z,48.05
2022-12-27T23:15:25.780Z,48.38
2022-12-27T23:17:52.821Z,48.57
2022-12-27T23:20:19.686Z,48.22
2022-12-27T23:22:46.312Z,48.24
2022-12-27T23:25:12.884Z,48.54
2022-12-27T23:27:39.426Z,48.04
2022-12-27T23:30:06.509Z,48.27
2022-12-27T23:32:33.064Z,48.08
2022-12-27T23:34:59.616Z,48.45
2022-12-27T23:37:26.171Z,48.53
2022-12-27T23:39:52.758Z,48.54
2022-12-27T23:42:19.332Z,48.59
2022-12-27T23:44:45.882Z,48.12
2022-12-27T23:47:12.426Z,48.90
2022-12-27T23:49:38.965Z,48.48
2022-12-27T23:52:05.515Z,48.74
2022-12-27T23:54:32.069Z,48.52
2022-12-27T23:56:58.637Z,48.23
2022-12-27T23:59:45.304Z,48.46
